Terminal Aerodrome Forecast
Issued by NWS

Home | Current Version | Previous Version | Text Only | Print | Product List | Glossary On
Versions: 1 2 3 4 5 6 7 8 9 10 11 12 13 14
000
FTUS43 KDTX 160529
TAFYIP
TAF
KYIP 160529Z 1606/1706 18003KT P6SM BKN250
      TEMPO 1606/1610 5SM BR SCT250
     FM161600 16005KT P6SM OVC100
     FM161900 14005KT P6SM OVC045
     FM162200 12007KT 4SM -RASN BR OVC025
     FM170100 09007KT 2SM -RA BR OVC008
     FM170400 09010KT 1SM -SHRA BR OVC004=

USA.gov is the U.S. government's official web portal to all federal, state and local government web resources and services.